Time;durP1;ratioP1;P1;durP2;ratioP2;P2;SDS_P1;SDS_P2;PMS_P1;PMS_P2;Temp;Humidity;BMP_temperature;BMP_pressure;BME280_temperature;BME280_humidity;BME280_pressure;Samples;Min_cycle;Max_cycle;Signal;HPM_P1;HPM_P2
2021/05/25 00:07:31;;;;;;;1.70;0.80;;;9.70;84.20;;;;;;5296929;22;20631;-85
2021/05/25 00:09:56;;;;;;;3.70;0.80;;;9.60;84.20;;;;;;5012321;28;20042;-84
2021/05/25 00:12:22;;;;;;;3.87;1.30;;;9.50;84.50;;;;;;5013154;28;20026;-87
2021/05/25 00:14:48;;;;;;;2.77;1.30;;;9.40;84.90;;;;;;4996329;28;20030;-86
2021/05/25 00:17:13;;;;;;;1.87;0.87;;;9.40;85.20;;;;;;4997143;28;20114;-87
2021/05/25 00:19:39;;;;;;;2.50;1.20;;;9.30;85.20;;;;;;4996137;28;20124;-86
2021/05/25 00:22:05;;;;;;;2.90;0.97;;;9.30;85.30;;;;;;5014895;28;20050;-86
2021/05/25 00:24:31;;;;;;;3.57;2.07;;;9.20;85.30;;;;;;5001621;28;20201;-84
2021/05/25 00:26:57;;;;;;;2.67;1.20;;;9.20;85.50;;;;;;5022137;28;20017;-85
2021/05/25 00:29:24;;;;;;;3.40;1.37;;;9.30;85.60;;;;;;5023506;28;20029;-85
2021/05/25 00:31:50;;;;;;;2.00;0.80;;;9.30;85.60;;;;;;5020947;28;20041;-85
2021/05/25 00:34:15;;;;;;;2.17;0.90;;;9.20;85.50;;;;;;5023763;28;20030;-86
2021/05/25 00:36:41;;;;;;;2.50;0.70;;;9.10;85.60;;;;;;5022574;28;20064;-86
2021/05/25 00:39:07;;;;;;;3.13;0.70;;;9.10;85.70;;;;;;5017464;28;20069;-88
2021/05/25 00:41:35;;;;;;;3.03;0.70;;;8.90;85.60;;;;;;4998015;28;20070;-87
2021/05/25 00:44:02;;;;;;;1.70;0.50;;;8.90;85.80;;;;;;5013681;28;20026;-85
2021/05/25 00:46:27;;;;;;;2.20;0.50;;;8.90;85.80;;;;;;5013469;28;20441;-86
2021/05/25 00:48:53;;;;;;;1.73;0.70;;;8.80;85.90;;;;;;4996387;28;20121;-87
2021/05/25 00:51:19;;;;;;;2.63;0.60;;;8.80;86.00;;;;;;5013090;28;20117;-86
2021/05/25 00:53:44;;;;;;;1.87;0.60;;;8.80;86.10;;;;;;5011906;28;20034;-85
2021/05/25 00:56:11;;;;;;;2.43;0.60;;;8.70;86.30;;;;;;5012464;28;20041;-87
2021/05/25 00:58:37;;;;;;;2.90;0.60;;;8.80;86.40;;;;;;5010721;28;20061;-86
2021/05/25 01:01:03;;;;;;;2.47;0.53;;;8.80;86.50;;;;;;4966992;28;20050;-86
2021/05/25 01:03:29;;;;;;;1.40;0.50;;;8.80;86.20;;;;;;5012114;28;20038;-87
2021/05/25 01:05:55;;;;;;;3.27;0.70;;;8.80;86.10;;;;;;5011005;28;20033;-88
2021/05/25 01:16:27;;;;;;;2.40;0.47;;;8.80;86.20;;;;;;5284157;23;20064;-86
2021/05/25 01:18:53;;;;;;;2.53;0.50;;;8.70;86.20;;;;;;5014988;28;20048;-86
2021/05/25 01:21:20;;;;;;;1.73;0.40;;;8.80;86.30;;;;;;5013033;28;20034;-85
2021/05/25 01:23:47;;;;;;;2.57;0.50;;;8.90;86.30;;;;;;4992918;28;20035;-86
2021/05/25 01:26:15;;;;;;;3.20;0.67;;;8.90;86.10;;;;;;5018220;28;20496;-86
2021/05/25 01:28:41;;;;;;;0.83;0.40;;;9.00;85.90;;;;;;5012431;28;20079;-86
2021/05/25 01:31:07;;;;;;;2.00;0.40;;;9.10;85.80;;;;;;5012663;28;20034;-86
2021/05/25 01:33:37;;;;;;;2.27;0.50;;;9.20;85.60;;;;;;5012721;28;20033;-84
2021/05/25 01:36:05;;;;;;;2.97;0.57;;;9.10;85.30;;;;;;4996879;28;20048;-86
2021/05/25 01:38:31;;;;;;;1.23;0.40;;;9.10;85.40;;;;;;4995943;28;20049;-85
2021/05/25 01:40:57;;;;;;;1.80;0.40;;;9.00;85.40;;;;;;5011712;28;20034;-85
2021/05/25 01:43:24;;;;;;;2.63;0.50;;;9.00;85.30;;;;;;4979501;28;20034;-86
2021/05/25 01:45:50;;;;;;;1.23;0.30;;;9.10;85.60;;;;;;5012177;28;20076;-83
2021/05/25 01:48:16;;;;;;;1.00;0.40;;;9.10;85.30;;;;;;5011572;28;20061;-86
2021/05/25 01:50:42;;;;;;;3.70;0.40;;;9.10;85.30;;;;;;5012344;28;20123;-85
2021/05/25 01:53:11;;;;;;;1.77;0.37;;;9.20;85.20;;;;;;5012678;28;20080;-82
2021/05/25 01:55:46;;;;;;;1.77;0.40;;;9.20;84.80;;;;;;5013165;28;20034;-85
2021/05/25 01:58:25;;;;;;;1.40;0.40;;;9.30;84.90;;;;;;5013082;28;20022;-85
2021/05/25 02:01:10;;;;;;;2.00;0.43;;;9.30;84.60;;;;;;5011868;28;20520;-84
2021/05/25 02:03:37;;;;;;;1.90;0.40;;;9.30;84.80;;;;;;4994762;28;20029;-84
2021/05/25 02:06:05;;;;;;;1.97;0.50;;;9.40;84.70;;;;;;5010651;28;20070;-83
2021/05/25 02:08:31;;;;;;;1.77;0.30;;;9.50;84.70;;;;;;5010197;28;20033;-84
2021/05/25 02:11:00;;;;;;;1.77;0.70;;;9.50;84.60;;;;;;5010546;28;20400;-84
2021/05/25 02:13:31;;;;;;;1.80;0.40;;;9.60;84.50;;;;;;5009996;28;20060;-84
2021/05/25 02:16:00;;;;;;;1.20;0.37;;;9.60;84.30;;;;;;5010341;28;20034;-84
2021/05/25 02:18:29;;;;;;;1.07;0.30;;;9.50;84.50;;;;;;5010912;28;20132;-85
2021/05/25 02:20:58;;;;;;;2.47;0.40;;;9.60;84.60;;;;;;5011227;28;20130;-84
2021/05/25 02:23:25;;;;;;;1.67;0.40;;;9.60;84.50;;;;;;5012314;28;20029;-85
2021/05/25 02:25:50;;;;;;;3.17;0.50;;;9.50;84.40;;;;;;5011925;28;20034;-83
2021/05/25 02:28:17;;;;;;;1.60;0.40;;;9.60;84.70;;;;;;5011295;28;20037;-85
2021/05/25 02:30:44;;;;;;;1.40;0.40;;;9.60;84.40;;;;;;5012751;28;20057;-84
2021/05/25 02:33:12;;;;;;;1.83;0.30;;;9.50;84.40;;;;;;5011607;28;20092;-84
2021/05/25 02:35:39;;;;;;;3.23;0.57;;;9.50;84.50;;;;;;5010591;28;20026;-83
2021/05/25 02:38:06;;;;;;;2.70;0.33;;;9.50;84.50;;;;;;4976162;28;20486;-83
2021/05/25 02:40:32;;;;;;;1.67;0.43;;;9.60;84.60;;;;;;4986270;28;20030;-84
2021/05/25 02:42:58;;;;;;;1.67;0.40;;;9.60;84.50;;;;;;4992873;28;20432;-84
2021/05/25 02:45:24;;;;;;;2.63;0.40;;;9.60;84.60;;;;;;5008934;28;20034;-84
2021/05/25 02:47:50;;;;;;;1.03;0.30;;;9.70;84.60;;;;;;4999210;28;20088;-82
2021/05/25 02:50:16;;;;;;;1.53;0.30;;;9.70;84.40;;;;;;4979743;28;20030;-83
2021/05/25 02:52:44;;;;;;;0.90;0.40;;;9.70;84.20;;;;;;5016865;28;20033;-83
2021/05/25 02:55:13;;;;;;;1.03;0.30;;;9.70;84.10;;;;;;5018440;28;20030;-83
2021/05/25 02:57:39;;;;;;;2.00;0.30;;;9.70;84.20;;;;;;5022361;28;20065;-84
2021/05/25 03:00:15;;;;;;;2.30;0.40;;;9.70;84.20;;;;;;5007404;28;20026;-83
2021/05/25 03:02:40;;;;;;;1.67;0.43;;;9.70;84.30;;;;;;5028656;28;20056;-84
2021/05/25 03:05:08;;;;;;;1.47;0.30;;;9.70;84.30;;;;;;5029329;28;20033;-83
2021/05/25 03:07:34;;;;;;;1.43;0.40;;;9.80;84.10;;;;;;5028480;28;20038;-84
2021/05/25 03:10:00;;;;;;;1.43;0.30;;;9.80;84.00;;;;;;5029192;28;20026;-84
2021/05/25 03:12:25;;;;;;;1.23;0.40;;;9.80;83.90;;;;;;5011446;28;20053;-85
2021/05/25 03:14:51;;;;;;;0.83;0.30;;;9.80;84.00;;;;;;4996697;28;20455;-82
2021/05/25 03:17:18;;;;;;;1.83;0.40;;;9.80;83.90;;;;;;5015682;28;20077;-84
2021/05/25 03:19:44;;;;;;;0.70;0.23;;;9.80;84.00;;;;;;4999911;28;20031;-82
2021/05/25 03:22:09;;;;;;;1.33;0.40;;;9.90;84.40;;;;;;5017978;28;20038;-83
2021/05/25 03:24:35;;;;;;;2.97;0.30;;;9.90;83.80;;;;;;5015640;28;20053;-83
2021/05/25 03:27:01;;;;;;;1.63;0.30;;;9.90;83.60;;;;;;4996915;28;20119;-83
2021/05/25 03:29:26;;;;;;;2.70;0.30;;;9.80;83.70;;;;;;5027603;28;20495;-86
2021/05/25 03:31:52;;;;;;;1.63;0.33;;;9.90;83.70;;;;;;5010708;28;20057;-84
2021/05/25 03:34:18;;;;;;;1.30;0.30;;;10.00;83.60;;;;;;5003632;28;20026;-83
2021/05/25 03:36:43;;;;;;;2.03;0.30;;;10.00;83.60;;;;;;5014810;28;20034;-83
2021/05/25 03:39:09;;;;;;;1.63;0.30;;;10.00;84.00;;;;;;5014332;28;20068;-83
2021/05/25 03:41:35;;;;;;;2.07;0.33;;;10.00;83.50;;;;;;5013943;28;20022;-82
2021/05/25 03:44:01;;;;;;;1.37;0.30;;;10.00;83.50;;;;;;5014552;28;20448;-83
2021/05/25 03:46:27;;;;;;;1.00;0.30;;;10.00;83.50;;;;;;4997937;28;20025;-84
2021/05/25 03:48:53;;;;;;;1.30;0.30;;;10.00;83.40;;;;;;4997523;28;20172;-81
2021/05/25 03:51:19;;;;;;;2.50;0.40;;;10.00;83.00;;;;;;4997852;28;20109;-82
2021/05/25 03:53:44;;;;;;;3.07;0.40;;;10.00;83.30;;;;;;4997482;28;20432;-83
2021/05/25 03:58:49;;;;;;;1.57;0.40;;;10.10;83.40;;;;;;5015134;28;20034;-82
2021/05/25 04:01:21;;;;;;;1.20;0.47;;;10.10;83.50;;;;;;5015013;28;20083;-82
2021/05/25 04:03:49;;;;;;;0.93;0.30;;;10.20;83.50;;;;;;4997138;28;20038;-81
2021/05/25 04:06:15;;;;;;;0.90;0.30;;;10.20;83.40;;;;;;5014585;28;20026;-84
2021/05/25 04:08:41;;;;;;;1.27;0.40;;;10.30;83.30;;;;;;4997318;28;20033;-82
2021/05/25 04:11:07;;;;;;;3.10;0.40;;;10.30;83.20;;;;;;4997531;28;20121;-80
2021/05/25 04:13:32;;;;;;;1.10;0.40;;;10.40;83.00;;;;;;5013067;28;20117;-82
2021/05/25 04:15:58;;;;;;;2.03;0.60;;;10.40;83.10;;;;;;4981396;28;20455;-81
2021/05/25 04:18:24;;;;;;;1.50;0.50;;;10.40;83.40;;;;;;5013716;28;20451;-81
2021/05/25 04:20:50;;;;;;;3.47;0.50;;;10.40;82.90;;;;;;4997558;28;20057;-80
2021/05/25 04:23:16;;;;;;;1.70;0.60;;;10.50;82.90;;;;;;5014000;28;20120;-80
2021/05/25 04:25:42;;;;;;;2.43;0.40;;;10.50;82.50;;;;;;5014876;28;20120;-82
2021/05/25 04:28:08;;;;;;;2.03;0.40;;;10.50;82.40;;;;;;4994254;28;20034;-80
2021/05/25 04:30:34;;;;;;;1.60;0.50;;;10.60;82.20;;;;;;4978000;28;20027;-81
2021/05/25 04:33:00;;;;;;;1.70;0.40;;;10.50;82.00;;;;;;4994441;28;20467;-80
2021/05/25 04:35:26;;;;;;;2.13;0.37;;;10.60;82.10;;;;;;4995627;28;20026;-80
2021/05/25 04:37:54;;;;;;;2.20;0.40;;;10.60;82.10;;;;;;5010244;28;20026;-82
2021/05/25 04:40:20;;;;;;;2.23;0.50;;;10.60;81.90;;;;;;5013389;28;20030;-83
2021/05/25 04:42:46;;;;;;;1.20;0.43;;;10.70;82.10;;;;;;4980916;28;20030;-85
2021/05/25 04:45:12;;;;;;;3.90;0.70;;;10.60;82.20;;;;;;4982523;28;20031;-85
2021/05/25 04:47:38;;;;;;;4.27;0.50;;;10.60;82.50;;;;;;5017480;28;20030;-84
2021/05/25 04:50:07;;;;;;;1.60;0.30;;;10.60;82.90;;;;;;5022834;28;20083;-82
2021/05/25 04:52:33;;;;;;;2.07;0.50;;;10.70;83.10;;;;;;5025744;28;20041;-84
2021/05/25 04:55:07;;;;;;;1.50;0.40;;;10.70;82.80;;;;;;5026638;28;20033;-84
2021/05/25 04:57:33;;;;;;;0.87;0.50;;;10.60;82.70;;;;;;5025081;28;20022;-85
2021/05/25 04:59:59;;;;;;;1.10;0.50;;;10.60;83.00;;;;;;5002882;28;20121;-85
2021/05/25 05:02:25;;;;;;;1.97;0.60;;;10.60;83.10;;;;;;5027747;28;20044;-85
2021/05/25 05:04:50;;;;;;;1.77;0.50;;;10.60;83.10;;;;;;5027490;28;20526;-83
2021/05/25 05:07:16;;;;;;;2.47;0.70;;;10.70;82.90;;;;;;5027482;28;20053;-85
2021/05/25 05:09:42;;;;;;;1.33;0.53;;;10.80;83.00;;;;;;5009210;28;20092;-83
2021/05/25 05:12:08;;;;;;;2.03;0.60;;;10.90;82.90;;;;;;5002624;28;20538;-82
2021/05/25 05:14:33;;;;;;;1.53;0.50;;;11.00;82.80;;;;;;5020667;28;20037;-83
2021/05/25 05:16:59;;;;;;;3.20;0.80;;;11.10;82.50;;;;;;5025847;28;20235;-87
2021/05/25 05:19:25;;;;;;;1.60;0.50;;;11.20;82.20;;;;;;5022343;28;20030;-89
2021/05/25 05:21:50;;;;;;;2.77;0.80;;;11.30;81.80;;;;;;5000312;28;20114;-86
2021/05/25 05:24:17;;;;;;;2.13;0.70;;;11.30;81.80;;;;;;5014975;28;20038;-88
2021/05/25 05:26:43;;;;;;;3.30;1.00;;;11.30;81.80;;;;;;5026270;28;20121;-84
2021/05/25 05:29:08;;;;;;;4.07;1.10;;;11.30;81.90;;;;;;5020524;28;20060;-83
2021/05/25 05:31:34;;;;;;;2.00;0.70;;;11.20;82.20;;;;;;5018712;28;20026;-84
2021/05/25 05:34:00;;;;;;;2.60;1.23;;;11.20;81.90;;;;;;5017287;28;20189;-84
2021/05/25 05:36:25;;;;;;;1.90;1.20;;;11.10;82.40;;;;;;5011663;28;20034;-85
2021/05/25 05:38:51;;;;;;;2.93;1.03;;;11.20;82.40;;;;;;5019297;28;20033;-85
2021/05/25 05:41:17;;;;;;;3.97;1.93;;;11.20;82.20;;;;;;5000491;28;20045;-85
2021/05/25 05:43:42;;;;;;;4.33;2.50;;;11.30;82.10;;;;;;4997323;28;20042;-86
2021/05/25 05:46:08;;;;;;;3.23;1.27;;;11.40;82.00;;;;;;5002527;28;20330;-82
2021/05/25 05:48:34;;;;;;;3.40;1.60;;;11.40;81.90;;;;;;4993687;28;20152;-83
2021/05/25 05:51:00;;;;;;;3.43;1.33;;;11.40;81.60;;;;;;5010205;28;20034;-84
2021/05/25 05:53:26;;;;;;;2.60;1.63;;;11.40;81.80;;;;;;5009593;28;20038;-85
2021/05/25 05:55:52;;;;;;;3.27;1.07;;;11.40;81.70;;;;;;4998212;28;20037;-84
2021/05/25 05:58:18;;;;;;;4.70;3.37;;;11.30;81.40;;;;;;5012846;28;20042;-84
2021/05/25 06:00:44;;;;;;;2.23;1.73;;;11.30;81.80;;;;;;5006988;28;20034;-85
2021/05/25 06:03:11;;;;;;;3.50;1.30;;;11.30;81.60;;;;;;5008854;28;20040;-83
2021/05/25 06:05:39;;;;;;;3.83;2.20;;;11.50;81.70;;;;;;5011320;28;20046;-83
2021/05/25 06:08:06;;;;;;;6.50;3.87;;;11.50;81.20;;;;;;5011954;28;20026;-83
2021/05/25 06:10:34;;;;;;;3.60;2.30;;;11.60;81.10;;;;;;5012177;28;20477;-85
2021/05/25 06:13:00;;;;;;;3.60;2.33;;;11.70;80.90;;;;;;5015446;28;20029;-83
2021/05/25 06:15:26;;;;;;;5.93;4.00;;;11.90;80.60;;;;;;5000199;28;20050;-84
2021/05/25 06:17:52;;;;;;;3.33;1.77;;;12.20;80.20;;;;;;4974832;28;20487;-83
2021/05/25 06:20:18;;;;;;;6.17;3.37;;;12.80;78.80;;;;;;5000624;28;20528;-84
2021/05/25 06:22:44;;;;;;;5.17;4.37;;;13.60;76.70;;;;;;5007371;28;20049;-85
2021/05/25 06:25:12;;;;;;;2.87;2.30;;;14.20;75.40;;;;;;5007288;28;20395;-84
2021/05/25 06:27:37;;;;;;;5.20;3.60;;;16.20;70.60;;;;;;4998683;28;20033;-83
2021/05/25 06:30:06;;;;;;;1.90;1.20;;;17.80;65.50;;;;;;5011099;28;20034;-85
2021/05/25 06:32:32;;;;;;;1.58;0.88;;;18.90;61.90;;;;;;4999254;28;20506;-83
2021/05/25 06:34:57;;;;;;;4.18;2.25;;;19.00;59.40;;;;;;5003171;28;20145;-83
2021/05/25 06:37:23;;;;;;;5.95;4.35;;;18.90;59.60;;;;;;5002936;28;20462;-84
2021/05/25 06:39:49;;;;;;;3.58;3.17;;;18.50;60.60;;;;;;5014335;28;20112;-86
2021/05/25 06:42:14;;;;;;;4.25;3.85;;;18.60;60.20;;;;;;5008083;28;20431;-81
2021/05/25 06:44:40;;;;;;;2.85;1.55;;;18.90;59.90;;;;;;5015743;28;20117;-82
2021/05/25 06:47:06;;;;;;;3.90;2.08;;;20.00;57.60;;;;;;5009223;28;20393;-83
2021/05/25 06:49:32;;;;;;;4.30;3.90;;;20.80;55.50;;;;;;5004578;28;20111;-81
2021/05/25 06:51:57;;;;;;;8.98;6.60;;;20.70;54.10;;;;;;4988564;28;20030;-80
2021/05/25 06:54:23;;;;;;;3.30;2.67;;;20.10;55.20;;;;;;4999640;28;20420;-82
2021/05/25 06:56:49;;;;;;;3.97;3.10;;;19.40;56.40;;;;;;5006334;28;20024;-81
2021/05/25 06:59:14;;;;;;;6.43;5.60;;;18.60;58.50;;;;;;5011390;28;20034;-81
2021/05/25 07:01:40;;;;;;;2.95;1.98;;;18.30;60.30;;;;;;5010755;28;20037;-80
2021/05/25 07:04:06;;;;;;;2.75;1.67;;;18.10;60.30;;;;;;4989739;28;20449;-78
2021/05/25 07:06:31;;;;;;;7.88;4.82;;;17.60;61.00;;;;;;4995228;28;20407;-79
2021/05/25 07:08:57;;;;;;;4.43;3.13;;;17.20;62.10;;;;;;4962525;28;20122;-81
2021/05/25 07:11:23;;;;;;;5.70;5.20;;;16.80;62.80;;;;;;4979336;28;20095;-82
2021/05/25 07:13:49;;;;;;;5.18;4.07;;;16.40;64.10;;;;;;5010212;28;20133;-81
2021/05/25 07:16:15;;;;;;;14.13;7.32;;;15.90;65.40;;;;;;5012062;28;20030;-82
2021/05/25 07:18:42;;;;;;;10.20;3.92;;;15.60;66.60;;;;;;4989160;28;20142;-78
2021/05/25 07:21:08;;;;;;;12.10;6.30;;;15.40;67.20;;;;;;5014730;28;20109;-80
2021/05/25 07:23:36;;;;;;;12.35;7.78;;;15.20;67.90;;;;;;5015838;28;20072;-81
2021/05/25 07:26:03;;;;;;;11.40;8.85;;;15.20;68.50;;;;;;4986714;28;20038;-79
2021/05/25 07:28:29;;;;;;;8.25;5.90;;;15.20;69.00;;;;;;5008598;28;20022;-79
2021/05/25 07:30:55;;;;;;;5.93;3.75;;;15.30;69.00;;;;;;4997592;28;20033;-83
2021/05/25 07:33:24;;;;;;;6.30;2.28;;;15.70;68.20;;;;;;5015178;28;20375;-81
2021/05/25 07:35:49;;;;;;;8.50;5.38;;;16.00;66.80;;;;;;4988024;28;20069;-81
2021/05/25 07:38:15;;;;;;;9.80;8.50;;;16.00;66.90;;;;;;4986953;28;20074;-79
2021/05/25 07:40:42;;;;;;;5.13;4.18;;;16.20;67.50;;;;;;4986885;28;20038;-81
2021/05/25 07:43:09;;;;;;;8.88;4.60;;;16.50;65.90;;;;;;5009973;28;20056;-81
2021/05/25 07:45:35;;;;;;;7.50;3.97;;;16.40;65.40;;;;;;5009276;28;20033;-80
2021/05/25 07:48:01;;;;;;;4.50;2.92;;;16.20;66.10;;;;;;5012698;28;20026;-82
2021/05/25 07:50:27;;;;;;;5.82;5.13;;;16.10;66.10;;;;;;5020157;28;20132;-82
2021/05/25 07:52:57;;;;;;;9.15;7.25;;;15.90;66.50;;;;;;5014307;28;20050;-81
2021/05/25 07:55:26;;;;;;;8.52;6.35;;;15.90;67.20;;;;;;5014377;28;20021;-82
2021/05/25 07:57:52;;;;;;;7.80;6.28;;;15.90;67.60;;;;;;5016980;28;20022;-82
2021/05/25 08:00:19;;;;;;;13.05;9.73;;;16.40;66.00;;;;;;5016267;28;20429;-80
2021/05/25 08:02:45;;;;;;;10.60;7.97;;;16.60;65.50;;;;;;4998883;28;20080;-82
2021/05/25 08:05:13;;;;;;;9.32;5.75;;;16.70;65.20;;;;;;5015874;28;20382;-82
2021/05/25 08:07:39;;;;;;;11.35;6.47;;;16.50;65.30;;;;;;5014212;28;20109;-81
2021/05/25 08:10:07;;;;;;;9.27;6.32;;;16.40;65.20;;;;;;5014279;28;20022;-80
2021/05/25 08:12:33;;;;;;;14.02;10.02;;;16.50;65.30;;;;;;5012583;28;20128;-83
2021/05/25 08:15:01;;;;;;;11.77;8.77;;;16.60;65.80;;;;;;5013274;28;20538;-82
2021/05/25 08:20:12;;;;;;;16.42;10.70;;;16.50;65.40;;;;;;5012721;28;20038;-81
2021/05/25 08:22:38;;;;;;;12.73;8.38;;;16.40;65.90;;;;;;5014052;28;20037;-82
2021/05/25 08:25:04;;;;;;;9.02;6.05;;;16.20;66.50;;;;;;5012278;28;20034;-83
2021/05/25 08:27:30;;;;;;;8.48;5.65;;;16.30;65.50;;;;;;4993289;28;20038;-83
2021/05/25 08:29:55;;;;;;;11.32;5.93;;;16.70;65.50;;;;;;5006352;28;20417;-79
2021/05/25 08:32:21;;;;;;;7.93;4.97;;;17.20;64.90;;;;;;5013062;28;20038;-83
2021/05/25 08:34:47;;;;;;;10.35;8.43;;;18.20;63.80;;;;;;5014489;28;20091;-83
2021/05/25 08:37:12;;;;;;;7.30;5.40;;;19.50;61.60;;;;;;5012097;28;20034;-80
2021/05/25 08:39:38;;;;;;;6.35;4.03;;;20.20;58.00;;;;;;5015245;28;20034;-80
2021/05/25 08:42:04;;;;;;;8.00;2.42;;;20.00;56.40;;;;;;5014071;28;20437;-81
2021/05/25 08:44:30;;;;;;;4.78;2.65;;;19.40;57.40;;;;;;5016837;28;20026;-79
2021/05/25 08:46:56;;;;;;;3.35;2.33;;;18.80;58.80;;;;;;4997602;28;20386;-82
2021/05/25 08:49:22;;;;;;;5.10;2.72;;;18.20;60.20;;;;;;5013797;28;20486;-80
2021/05/25 08:51:48;;;;;;;3.65;2.53;;;17.60;60.90;;;;;;5016560;28;20049;-82
2021/05/25 08:54:14;;;;;;;4.20;1.13;;;17.50;62.60;;;;;;5014570;28;20038;-82
2021/05/25 08:56:44;;;;;;;2.97;1.08;;;17.50;61.50;;;;;;5015944;28;20034;-83
2021/05/25 08:59:11;;;;;;;3.20;1.88;;;17.20;61.80;;;;;;5001818;28;20083;-81
2021/05/25 09:01:37;;;;;;;5.88;1.88;;;16.80;62.80;;;;;;5001936;28;20034;-80
2021/05/25 09:04:07;;;;;;;4.43;2.25;;;16.50;64.30;;;;;;4990082;28;20085;-83
2021/05/25 09:06:39;;;;;;;2.88;1.30;;;16.30;64.60;;;;;;5005147;28;20096;-84
2021/05/25 09:09:10;;;;;;;5.63;2.75;;;16.00;65.50;;;;;;5009033;28;20026;-81
2021/05/25 09:12:13;;;;;;;3.45;2.10;;;15.80;66.40;;;;;;5025845;28;20021;-86
2021/05/25 09:14:50;;;;;;;4.50;1.10;;;15.80;67.00;;;;;;4933637;29;20169;-82
2021/05/25 09:17:27;;;;;;;2.60;0.70;;;15.70;66.40;;;;;;5013731;28;20047;-84
2021/05/25 09:19:55;;;;;;;5.05;3.22;;;15.80;66.50;;;;;;5017351;28;20033;-81
2021/05/25 09:22:35;;;;;;;2.92;2.17;;;15.80;67.00;;;;;;5025205;28;20083;-82
2021/05/25 09:25:18;;;;;;;5.82;3.80;;;15.90;67.30;;;;;;5023892;28;20034;-81
2021/05/25 09:28:00;;;;;;;4.95;1.70;;;16.00;67.50;;;;;;5021619;28;20022;-79
2021/05/25 09:30:29;;;;;;;4.53;2.40;;;16.00;67.00;;;;;;5020426;28;20038;-79
2021/05/25 09:33:00;;;;;;;4.90;2.28;;;15.80;67.70;;;;;;4999814;28;20042;-79
2021/05/25 09:35:34;;;;;;;3.13;2.03;;;15.80;67.60;;;;;;5014531;28;20498;-81
2021/05/25 09:38:07;;;;;;;7.35;2.60;;;15.90;66.90;;;;;;5022603;28;20168;-78
2021/05/25 09:40:33;;;;;;;5.88;2.42;;;16.10;67.10;;;;;;5018578;28;20164;-83
2021/05/25 09:43:20;;;;;;;7.60;4.55;;;16.30;66.10;;;;;;4999593;28;20037;-81
2021/05/25 09:46:15;;;;;;;6.57;3.08;;;16.50;66.50;;;;;;5019809;28;20029;-80
2021/05/25 09:48:44;;;;;;;7.18;3.17;;;16.40;65.70;;;;;;5022927;28;20034;-79
2021/05/25 09:51:24;;;;;;;4.82;2.97;;;16.40;66.50;;;;;;5011071;28;20061;-80
2021/05/25 09:53:50;;;;;;;5.82;3.40;;;16.10;66.70;;;;;;4993978;28;20486;-81
2021/05/25 09:56:30;;;;;;;2.53;1.40;;;15.90;66.60;;;;;;5009802;28;20080;-79
2021/05/25 09:58:57;;;;;;;3.45;1.48;;;15.50;67.30;;;;;;5007934;28;20490;-79
2021/05/25 10:01:36;;;;;;;3.10;1.60;;;15.10;67.60;;;;;;5012415;28;20060;-80
2021/05/25 10:04:14;;;;;;;4.47;1.50;;;14.70;68.80;;;;;;5013514;28;20038;-79
2021/05/25 10:06:45;;;;;;;3.67;2.58;;;14.50;70.20;;;;;;5013060;28;20026;-81
2021/05/25 10:09:11;;;;;;;4.45;2.38;;;14.30;72.00;;;;;;5013438;28;20195;-82
2021/05/25 10:11:45;;;;;;;3.88;1.90;;;14.00;72.60;;;;;;5013916;28;20079;-80
2021/05/25 10:14:12;;;;;;;4.35;2.55;;;13.90;73.50;;;;;;5012336;28;20095;-80
2021/05/25 10:16:40;;;;;;;5.28;2.30;;;13.70;74.10;;;;;;4991733;28;20041;-79
2021/05/25 10:21:39;;;;;;;3.85;1.70;;;13.60;74.30;;;;;;5014468;28;20099;-83
2021/05/25 10:24:05;;;;;;;5.63;1.90;;;13.50;74.10;;;;;;5014385;28;20034;-81
2021/05/25 10:26:34;;;;;;;4.55;1.83;;;13.50;74.10;;;;;;4994503;28;20061;-81
2021/05/25 10:29:05;;;;;;;4.53;1.45;;;13.70;73.80;;;;;;5010745;28;20121;-80
2021/05/25 10:31:39;;;;;;;5.97;2.53;;;13.90;73.40;;;;;;5010277;28;20026;-82
2021/05/25 10:34:15;;;;;;;4.80;2.47;;;14.30;73.70;;;;;;5013161;28;20022;-80
2021/05/25 10:36:49;;;;;;;6.32;4.10;;;14.70;73.50;;;;;;5012870;28;20084;-80
2021/05/25 10:39:33;;;;;;;4.15;2.55;;;15.30;73.00;;;;;;5013711;28;20064;-80
2021/05/25 10:42:20;;;;;;;4.03;1.98;;;16.00;71.60;;;;;;5012276;28;20038;-79
2021/05/25 10:45:14;;;;;;;3.42;2.80;;;16.50;70.60;;;;;;5012184;28;20037;-81
2021/05/25 10:47:58;;;;;;;5.55;3.38;;;17.10;70.30;;;;;;5013901;28;20077;-80
2021/05/25 10:50:31;;;;;;;4.57;2.65;;;17.60;69.10;;;;;;5012183;28;20061;-81
2021/05/25 10:52:57;;;;;;;7.88;2.72;;;18.10;69.10;;;;;;5015438;28;20028;-81
2021/05/25 10:55:28;;;;;;;4.65;2.53;;;18.60;68.00;;;;;;5012878;28;20124;-80
2021/05/25 10:57:54;;;;;;;5.80;2.83;;;19.10;67.00;;;;;;5013866;28;20026;-78
2021/05/25 11:00:38;;;;;;;3.70;2.80;;;19.30;66.30;;;;;;4995848;28;20026;-81
2021/05/25 11:03:05;;;;;;;3.97;2.60;;;19.50;65.60;;;;;;5010769;28;20025;-81
2021/05/25 11:05:32;;;;;;;7.28;2.50;;;19.60;64.60;;;;;;5013739;28;20120;-81
2021/05/25 11:08:10;;;;;;;6.25;2.90;;;19.80;64.20;;;;;;5014994;28;20038;-80
2021/05/25 11:10:43;;;;;;;5.80;2.97;;;20.00;64.20;;;;;;5014786;28;20021;-80
2021/05/25 11:13:17;;;;;;;7.13;2.67;;;20.20;63.90;;;;;;5016477;28;20389;-81
2021/05/25 11:18:49;;;;;;;4.80;1.60;;;20.30;61.60;;;;;;5020307;28;20355;-80
2021/05/25 11:24:40;;;;;;;3.25;1.90;;;18.90;61.70;;;;;;5025694;28;20050;-79
2021/05/25 11:27:26;;;;;;;1.85;0.75;;;18.50;64.20;;;;;;5025203;28;20089;-79
2021/05/25 11:30:02;;;;;;;2.15;0.60;;;17.70;63.30;;;;;;5026799;28;20034;-79
2021/05/25 11:32:39;;;;;;;2.22;0.57;;;16.70;65.60;;;;;;5025761;28;20030;-81
2021/05/25 11:35:07;;;;;;;1.80;0.63;;;16.10;66.10;;;;;;5025035;28;20022;-80
2021/05/25 11:37:38;;;;;;;2.83;0.68;;;15.70;67.00;;;;;;5022535;28;20378;-80
2021/05/25 11:40:13;;;;;;;1.73;0.50;;;15.70;67.30;;;;;;5019460;28;20375;-81
2021/05/25 11:42:42;;;;;;;1.52;0.32;;;15.80;67.20;;;;;;5019918;28;20033;-82
2021/05/25 11:45:09;;;;;;;2.13;0.50;;;15.80;66.80;;;;;;5021220;28;20038;-83
2021/05/25 11:47:36;;;;;;;1.77;0.40;;;15.80;66.60;;;;;;4994939;28;20026;-82
2021/05/25 11:50:02;;;;;;;1.58;0.47;;;15.90;66.20;;;;;;5023641;28;20029;-85
2021/05/25 11:52:33;;;;;;;1.58;0.50;;;15.90;66.40;;;;;;5021622;28;20042;-84
2021/05/25 11:55:10;;;;;;;1.70;0.40;;;16.30;66.50;;;;;;5020228;28;20109;-79
2021/05/25 11:57:40;;;;;;;3.05;0.52;;;16.80;66.40;;;;;;5020679;28;20462;-82
2021/05/25 12:00:13;;;;;;;1.42;0.50;;;17.50;65.80;;;;;;5018212;28;20397;-83
2021/05/25 12:02:40;;;;;;;;;;;18.00;64.90;;;;;;5017050;28;20029;-80
2021/05/25 12:05:18;;;;;;;2.45;0.70;;;18.40;64.70;;;;;;5015751;28;19920;-79
2021/05/25 12:07:46;;;;;;;4.13;0.60;;;18.70;63.00;;;;;;5017273;28;20034;-80
2021/05/25 12:10:17;;;;;;;3.17;0.80;;;18.80;62.40;;;;;;5012913;28;20466;-80
2021/05/25 12:12:45;;;;;;;3.15;0.90;;;18.90;62.40;;;;;;5013501;28;20033;-78
2021/05/25 12:15:19;;;;;;;3.55;0.90;;;19.20;62.10;;;;;;4996710;28;20122;-82
2021/05/25 12:17:50;;;;;;;2.33;0.57;;;19.20;62.00;;;;;;5012785;28;20097;-80
2021/05/25 12:20:17;;;;;;;4.22;0.50;;;19.20;60.80;;;;;;5014028;28;20030;-82
2021/05/25 12:22:44;;;;;;;1.98;0.40;;;19.10;59.50;;;;;;5012771;28;20021;-80
2021/05/25 12:25:27;;;;;;;1.77;0.47;;;19.10;59.00;;;;;;5012557;28;20037;-83
2021/05/25 12:27:54;;;;;;;;;;;18.90;59.00;;;;;;5014730;28;20220;-78
2021/05/25 12:30:22;;;;;;;3.22;0.40;;;18.90;57.80;;;;;;5013829;28;19912;-82
2021/05/25 12:32:48;;;;;;;1.33;0.30;;;18.60;58.00;;;;;;5011869;28;20041;-80
2021/05/25 12:35:16;;;;;;;2.50;0.30;;;18.50;58.30;;;;;;5013159;28;20080;-80
2021/05/25 12:37:42;;;;;;;1.60;0.28;;;18.40;58.80;;;;;;5012515;28;20038;-81
2021/05/25 12:40:10;;;;;;;3.03;0.30;;;18.30;58.90;;;;;;5011867;28;20065;-80
2021/05/25 12:42:42;;;;;;;2.22;0.32;;;18.30;59.90;;;;;;5011309;28;20113;-78
2021/05/25 12:45:14;;;;;;;1.65;0.30;;;18.40;60.30;;;;;;5011512;28;20406;-80
2021/05/25 12:47:49;;;;;;;2.35;0.35;;;18.30;58.30;;;;;;5011221;28;20041;-77
2021/05/25 12:50:15;;;;;;;1.88;0.30;;;18.30;59.60;;;;;;5011475;28;20042;-77
2021/05/25 12:52:41;;;;;;;1.45;0.32;;;18.40;59.20;;;;;;5012565;28;20474;-76
2021/05/25 12:55:12;;;;;;;1.98;0.30;;;18.70;59.10;;;;;;4994831;28;20037;-78
2021/05/25 12:57:43;;;;;;;1.02;0.30;;;19.10;59.20;;;;;;5010847;28;20038;-81
2021/05/25 13:00:11;;;;;;;1.20;0.30;;;19.30;56.60;;;;;;5011352;28;20026;-78
2021/05/25 13:02:41;;;;;;;1.65;0.28;;;19.50;55.90;;;;;;5012119;28;20079;-78
2021/05/25 13:05:15;;;;;;;0.57;0.20;;;19.60;55.90;;;;;;5009316;28;20033;-77
2021/05/25 13:08:05;;;;;;;1.63;0.30;;;19.80;55.00;;;;;;5008987;28;20371;-79
2021/05/25 13:10:51;;;;;;;1.58;0.30;;;19.70;54.60;;;;;;5011935;28;20033;-81
2021/05/25 13:13:22;;;;;;;2.53;0.30;;;19.60;54.70;;;;;;5010503;28;20121;-80
2021/05/25 13:15:54;;;;;;;0.80;0.25;;;19.50;54.00;;;;;;5011342;28;20113;-80
2021/05/25 13:18:37;;;;;;;1.25;0.40;;;19.30;53.00;;;;;;5010974;28;20062;-82
2021/05/25 13:21:03;;;;;;;1.60;0.20;;;19.20;54.10;;;;;;5011026;28;20413;-79
2021/05/25 13:23:31;;;;;;;2.88;0.32;;;19.30;52.80;;;;;;4994656;28;20030;-82
2021/05/25 13:26:17;;;;;;;2.13;0.30;;;19.40;53.50;;;;;;5007261;28;20103;-81